sensor_id;sensor_type;location;lat;lon;timestamp;pressure;altitude;pressure_sealevel;temperature;humidity
43683;BME280;29285;52.128;21.060;2024-02-21T00:04:45;100773.56;;;5.24;100.00
43683;BME280;29285;52.128;21.060;2024-02-21T00:09:45;100778.05;;;5.25;100.00
43683;BME280;29285;52.128;21.060;2024-02-21T00:14:46;100774.88;;;5.33;100.00
43683;BME280;29285;52.128;21.060;2024-02-21T00:19:47;100773.13;;;5.29;100.00
43683;BME280;29285;52.128;21.060;2024-02-21T00:24:48;100764.91;;;5.33;100.00
43683;BME280;29285;52.128;21.060;2024-02-21T00:29:49;100762.91;;;5.38;100.00
43683;BME280;29285;52.128;21.060;2024-02-21T00:34:51;100765.81;;;5.36;100.00
43683;BME280;29285;52.128;21.060;2024-02-21T00:39:51;100762.39;;;5.39;100.00
43683;BME280;29285;52.128;21.060;2024-02-21T00:44:52;100757.45;;;5.42;100.00
43683;BME280;29285;52.128;21.060;2024-02-21T00:49:53;100760.29;;;5.51;100.00
43683;BME280;29285;52.128;21.060;2024-02-21T00:54:54;100751.46;;;5.46;100.00
43683;BME280;29285;52.128;21.060;2024-02-21T00:59:55;100745.96;;;5.45;100.00
43683;BME280;29285;52.128;21.060;2024-02-21T01:04:57;100743.63;;;5.53;100.00
43683;BME280;29285;52.128;21.060;2024-02-21T01:09:58;100739.17;;;5.54;100.00
43683;BME280;29285;52.128;21.060;2024-02-21T01:14:59;100733.88;;;5.59;100.00
43683;BME280;29285;52.128;21.060;2024-02-21T01:20:00;100729.55;;;5.56;100.00
43683;BME280;29285;52.128;21.060;2024-02-21T01:25:00;100724.65;;;5.50;100.00
43683;BME280;29285;52.128;21.060;2024-02-21T01:30:01;100726.46;;;5.42;100.00
43683;BME280;29285;52.128;21.060;2024-02-21T01:35:02;100721.66;;;5.43;100.00
43683;BME280;29285;52.128;21.060;2024-02-21T01:40:04;100713.84;;;5.36;100.00
43683;BME280;29285;52.128;21.060;2024-02-21T01:45:05;100714.20;;;5.24;100.00
43683;BME280;29285;52.128;21.060;2024-02-21T01:50:07;100713.70;;;5.25;100.00
43683;BME280;29285;52.128;21.060;2024-02-21T01:55:09;100714.50;;;5.21;100.00
43683;BME280;29285;52.128;21.060;2024-02-21T02:00:12;100711.79;;;5.23;100.00
43683;BME280;29285;52.128;21.060;2024-02-21T02:05:15;100716.98;;;5.26;100.00
43683;BME280;29285;52.128;21.060;2024-02-21T02:10:17;100712.02;;;5.28;100.00
43683;BME280;29285;52.128;21.060;2024-02-21T02:15:19;100707.90;;;5.28;100.00
43683;BME280;29285;52.128;21.060;2024-02-21T02:20:19;100707.18;;;5.27;100.00
43683;BME280;29285;52.128;21.060;2024-02-21T02:25:20;100701.21;;;5.31;100.00
43683;BME280;29285;52.128;21.060;2024-02-21T02:30:22;100694.89;;;5.35;100.00
43683;BME280;29285;52.128;21.060;2024-02-21T02:35:23;100692.33;;;5.36;100.00
43683;BME280;29285;52.128;21.060;2024-02-21T02:40:24;100690.65;;;5.40;100.00
43683;BME280;29285;52.128;21.060;2024-02-21T02:45:25;100690.18;;;5.45;100.00
43683;BME280;29285;52.128;21.060;2024-02-21T02:50:27;100688.70;;;5.53;100.00
43683;BME280;29285;52.128;21.060;2024-02-21T02:55:28;100684.89;;;5.67;100.00
43683;BME280;29285;52.128;21.060;2024-02-21T03:00:29;100683.56;;;5.73;100.00
43683;BME280;29285;52.128;21.060;2024-02-21T03:05:30;100680.62;;;5.71;100.00
43683;BME280;29285;52.128;21.060;2024-02-21T03:10:31;100681.19;;;5.75;100.00
43683;BME280;29285;52.128;21.060;2024-02-21T03:15:32;100688.36;;;5.68;100.00
43683;BME280;29285;52.128;21.060;2024-02-21T03:20:33;100688.64;;;5.63;100.00
43683;BME280;29285;52.128;21.060;2024-02-21T03:25:34;100686.36;;;5.57;100.00
43683;BME280;29285;52.128;21.060;2024-02-21T03:30:35;100689.00;;;5.64;100.00
43683;BME280;29285;52.128;21.060;2024-02-21T03:35:36;100687.67;;;5.68;100.00
43683;BME280;29285;52.128;21.060;2024-02-21T03:40:37;100688.17;;;5.68;100.00
43683;BME280;29285;52.128;21.060;2024-02-21T03:45:38;100679.89;;;5.66;100.00
43683;BME280;29285;52.128;21.060;2024-02-21T03:50:39;100682.13;;;5.66;100.00
43683;BME280;29285;52.128;21.060;2024-02-21T03:55:40;100670.42;;;5.65;100.00
43683;BME280;29285;52.128;21.060;2024-02-21T04:00:41;100679.73;;;5.66;100.00
43683;BME280;29285;52.128;21.060;2024-02-21T04:05:42;100678.11;;;5.77;100.00
43683;BME280;29285;52.128;21.060;2024-02-21T04:10:43;100680.36;;;5.79;100.00
43683;BME280;29285;52.128;21.060;2024-02-21T04:15:44;100676.54;;;5.75;100.00
43683;BME280;29285;52.128;21.060;2024-02-21T04:20:45;100668.91;;;5.70;100.00
43683;BME280;29285;52.128;21.060;2024-02-21T04:25:46;100670.42;;;5.65;100.00
43683;BME280;29285;52.128;21.060;2024-02-21T04:30:47;100669.84;;;5.59;100.00
43683;BME280;29285;52.128;21.060;2024-02-21T04:35:48;100663.34;;;5.46;100.00
43683;BME280;29285;52.128;21.060;2024-02-21T04:40:49;100660.31;;;5.36;100.00
43683;BME280;29285;52.128;21.060;2024-02-21T04:45:50;100657.65;;;5.27;100.00
43683;BME280;29285;52.128;21.060;2024-02-21T04:50:51;100659.41;;;5.15;100.00
43683;BME280;29285;52.128;21.060;2024-02-21T04:55:52;100658.58;;;5.03;100.00
43683;BME280;29285;52.128;21.060;2024-02-21T05:00:53;100660.04;;;4.95;100.00
43683;BME280;29285;52.128;21.060;2024-02-21T05:05:55;100658.40;;;4.89;100.00
43683;BME280;29285;52.128;21.060;2024-02-21T05:10:56;100657.02;;;4.89;100.00
43683;BME280;29285;52.128;21.060;2024-02-21T05:15:57;100657.38;;;4.89;100.00
43683;BME280;29285;52.128;21.060;2024-02-21T05:21:02;100659.66;;;4.93;100.00
43683;BME280;29285;52.128;21.060;2024-02-21T05:26:03;100658.60;;;4.90;100.00
43683;BME280;29285;52.128;21.060;2024-02-21T05:31:04;100655.27;;;4.86;100.00
43683;BME280;29285;52.128;21.060;2024-02-21T05:36:05;100655.73;;;4.82;100.00
43683;BME280;29285;52.128;21.060;2024-02-21T05:41:06;100652.42;;;4.79;100.00
43683;BME280;29285;52.128;21.060;2024-02-21T05:46:07;100648.46;;;4.77;100.00
43683;BME280;29285;52.128;21.060;2024-02-21T05:51:08;100644.33;;;4.76;100.00
43683;BME280;29285;52.128;21.060;2024-02-21T05:56:13;100642.63;;;4.77;100.00
43683;BME280;29285;52.128;21.060;2024-02-21T06:01:14;100638.83;;;4.77;100.00
43683;BME280;29285;52.128;21.060;2024-02-21T06:06:15;100642.45;;;4.78;100.00
43683;BME280;29285;52.128;21.060;2024-02-21T06:11:16;100642.85;;;4.82;100.00
43683;BME280;29285;52.128;21.060;2024-02-21T06:16:17;100636.84;;;4.83;100.00
43683;BME280;29285;52.128;21.060;2024-02-21T06:21:18;100635.52;;;4.87;100.00
43683;BME280;29285;52.128;21.060;2024-02-21T06:26:18;100642.64;;;4.94;100.00
43683;BME280;29285;52.128;21.060;2024-02-21T06:31:19;100636.69;;;4.99;100.00
43683;BME280;29285;52.128;21.060;2024-02-21T06:36:21;100635.69;;;5.01;100.00
43683;BME280;29285;52.128;21.060;2024-02-21T06:41:22;100632.27;;;5.02;100.00
43683;BME280;29285;52.128;21.060;2024-02-21T06:46:27;100635.05;;;5.07;100.00
43683;BME280;29285;52.128;21.060;2024-02-21T06:51:29;100642.73;;;5.16;100.00
43683;BME280;29285;52.128;21.060;2024-02-21T06:56:30;100647.20;;;5.16;100.00
43683;BME280;29285;52.128;21.060;2024-02-21T07:01:31;100646.36;;;5.17;100.00
43683;BME280;29285;52.128;21.060;2024-02-21T07:06:33;100647.19;;;5.15;100.00
43683;BME280;29285;52.128;21.060;2024-02-21T07:11:35;100644.77;;;5.12;100.00
43683;BME280;29285;52.128;21.060;2024-02-21T07:16:36;100641.51;;;5.15;100.00
43683;BME280;29285;52.128;21.060;2024-02-21T07:21:36;100636.06;;;5.21;100.00
43683;BME280;29285;52.128;21.060;2024-02-21T07:26:43;100638.56;;;5.29;100.00
43683;BME280;29285;52.128;21.060;2024-02-21T07:31:44;100635.20;;;5.36;100.00
43683;BME280;29285;52.128;21.060;2024-02-21T07:36:45;100629.92;;;5.41;100.00
43683;BME280;29285;52.128;21.060;2024-02-21T07:41:46;100623.42;;;5.47;100.00
43683;BME280;29285;52.128;21.060;2024-02-21T07:46:48;100622.30;;;5.55;100.00
43683;BME280;29285;52.128;21.060;2024-02-21T07:51:49;100615.44;;;5.58;100.00
43683;BME280;29285;52.128;21.060;2024-02-21T07:56:50;100614.29;;;5.63;100.00
43683;BME280;29285;52.128;21.060;2024-02-21T08:01:52;100611.19;;;5.64;100.00
43683;BME280;29285;52.128;21.060;2024-02-21T08:06:56;100603.63;;;5.65;100.00
43683;BME280;29285;52.128;21.060;2024-02-21T08:11:59;100596.43;;;5.70;100.00
43683;BME280;29285;52.128;21.060;2024-02-21T08:17:00;100588.09;;;5.80;100.00
43683;BME280;29285;52.128;21.060;2024-02-21T08:22:01;100582.85;;;5.95;100.00
43683;BME280;29285;52.128;21.060;2024-02-21T08:27:04;100570.37;;;6.06;100.00
43683;BME280;29285;52.128;21.060;2024-02-21T08:32:05;100566.11;;;6.13;100.00
43683;BME280;29285;52.128;21.060;2024-02-21T08:37:06;100568.73;;;6.16;100.00
43683;BME280;29285;52.128;21.060;2024-02-21T08:42:07;100564.09;;;6.20;100.00
43683;BME280;29285;52.128;21.060;2024-02-21T08:47:08;100567.88;;;6.19;100.00
43683;BME280;29285;52.128;21.060;2024-02-21T08:52:10;100564.08;;;6.17;100.00
43683;BME280;29285;52.128;21.060;2024-02-21T08:57:11;100557.41;;;6.26;100.00
43683;BME280;29285;52.128;21.060;2024-02-21T09:02:14;100559.16;;;6.33;100.00
43683;BME280;29285;52.128;21.060;2024-02-21T09:07:18;100556.77;;;6.34;100.00
43683;BME280;29285;52.128;21.060;2024-02-21T09:12:19;100551.27;;;6.39;100.00
43683;BME280;29285;52.128;21.060;2024-02-21T09:17:20;100549.74;;;6.46;100.00
43683;BME280;29285;52.128;21.060;2024-02-21T09:22:21;100549.59;;;6.50;100.00
43683;BME280;29285;52.128;21.060;2024-02-21T09:27:22;100542.36;;;6.54;100.00
43683;BME280;29285;52.128;21.060;2024-02-21T09:32:23;100544.82;;;6.63;100.00
43683;BME280;29285;52.128;21.060;2024-02-21T09:37:24;100538.11;;;6.72;100.00
43683;BME280;29285;52.128;21.060;2024-02-21T09:42:36;100536.40;;;6.72;100.00
43683;BME280;29285;52.128;21.060;2024-02-21T09:47:46;100538.64;;;6.77;100.00
43683;BME280;29285;52.128;21.060;2024-02-21T09:52:51;100537.98;;;6.81;100.00
43683;BME280;29285;52.128;21.060;2024-02-21T09:57:55;100533.33;;;6.87;100.00
43683;BME280;29285;52.128;21.060;2024-02-21T10:02:58;100531.10;;;6.95;100.00
43683;BME280;29285;52.128;21.060;2024-02-21T10:08:00;100522.66;;;7.03;100.00
43683;BME280;29285;52.128;21.060;2024-02-21T10:13:01;100518.36;;;7.02;100.00
43683;BME280;29285;52.128;21.060;2024-02-21T10:18:02;100508.35;;;7.05;100.00
43683;BME280;29285;52.128;21.060;2024-02-21T10:23:07;100505.25;;;7.09;100.00
43683;BME280;29285;52.128;21.060;2024-02-21T10:28:12;100504.56;;;7.09;100.00
43683;BME280;29285;52.128;21.060;2024-02-21T10:33:15;100504.21;;;7.12;100.00
43683;BME280;29285;52.128;21.060;2024-02-21T10:38:16;100495.25;;;7.13;100.00
43683;BME280;29285;52.128;21.060;2024-02-21T10:43:17;100491.98;;;7.20;100.00
43683;BME280;29285;52.128;21.060;2024-02-21T10:48:24;100490.94;;;7.18;100.00
43683;BME280;29285;52.128;21.060;2024-02-21T10:53:50;100481.27;;;7.18;100.00
43683;BME280;29285;52.128;21.060;2024-02-21T10:58:54;100479.36;;;7.16;100.00
43683;BME280;29285;52.128;21.060;2024-02-21T11:04:02;100477.65;;;7.17;100.00
43683;BME280;29285;52.128;21.060;2024-02-21T11:09:10;100467.82;;;7.19;100.00
43683;BME280;29285;52.128;21.060;2024-02-21T11:14:18;100456.95;;;7.20;100.00
43683;BME280;29285;52.128;21.060;2024-02-21T11:19:20;100451.25;;;7.22;100.00
43683;BME280;29285;52.128;21.060;2024-02-21T11:24:31;100448.48;;;7.21;100.00
43683;BME280;29285;52.128;21.060;2024-02-21T11:29:33;100440.72;;;7.21;100.00
43683;BME280;29285;52.128;21.060;2024-02-21T11:35:02;100436.41;;;7.20;100.00
43683;BME280;29285;52.128;21.060;2024-02-21T11:40:06;100428.82;;;7.13;100.00
43683;BME280;29285;52.128;21.060;2024-02-21T11:45:10;100431.74;;;7.09;100.00
43683;BME280;29285;52.128;21.060;2024-02-21T11:50:11;100427.79;;;7.07;100.00
43683;BME280;29285;52.128;21.060;2024-02-21T11:55:12;100425.71;;;7.04;100.00
43683;BME280;29285;52.128;21.060;2024-02-21T12:00:17;100425.36;;;7.04;100.00
43683;BME280;29285;52.128;21.060;2024-02-21T12:05:21;100416.05;;;7.00;100.00
43683;BME280;29285;52.128;21.060;2024-02-21T12:10:22;100409.33;;;6.96;100.00
43683;BME280;29285;52.128;21.060;2024-02-21T12:15:23;100408.64;;;6.92;100.00
43683;BME280;29285;52.128;21.060;2024-02-21T12:20:25;100401.90;;;6.90;100.00
43683;BME280;29285;52.128;21.060;2024-02-21T12:25:26;100397.08;;;6.88;100.00
43683;BME280;29285;52.128;21.060;2024-02-21T12:30:28;100393.63;;;6.87;100.00
43683;BME280;29285;52.128;21.060;2024-02-21T12:35:30;100386.21;;;6.85;100.00
43683;BME280;29285;52.128;21.060;2024-02-21T12:40:33;100385.34;;;6.81;100.00
43683;BME280;29285;52.128;21.060;2024-02-21T12:45:34;100378.11;;;6.80;100.00
43683;BME280;29285;52.128;21.060;2024-02-21T12:50:35;100369.13;;;6.79;100.00
43683;BME280;29285;52.128;21.060;2024-02-21T12:55:36;100364.99;;;6.77;100.00
43683;BME280;29285;52.128;21.060;2024-02-21T13:00:38;100361.90;;;6.76;100.00
43683;BME280;29285;52.128;21.060;2024-02-21T13:05:39;100355.34;;;6.76;100.00
43683;BME280;29285;52.128;21.060;2024-02-21T13:10:40;100351.21;;;6.73;100.00
43683;BME280;29285;52.128;21.060;2024-02-21T13:15:41;100350.34;;;6.71;100.00
43683;BME280;29285;52.128;21.060;2024-02-21T13:20:44;100350.51;;;6.70;100.00
43683;BME280;29285;52.128;21.060;2024-02-21T13:25:45;100343.10;;;6.71;100.00
43683;BME280;29285;52.128;21.060;2024-02-21T13:30:46;100338.09;;;6.71;100.00
43683;BME280;29285;52.128;21.060;2024-02-21T13:35:47;100328.27;;;6.71;100.00
43683;BME280;29285;52.128;21.060;2024-02-21T13:40:48;100317.42;;;6.70;100.00
43683;BME280;29285;52.128;21.060;2024-02-21T13:46:00;100313.10;;;6.73;100.00
43683;BME280;29285;52.128;21.060;2024-02-21T13:51:02;100300.68;;;6.77;100.00
43683;BME280;29285;52.128;21.060;2024-02-21T13:56:03;100288.79;;;6.75;100.00
43683;BME280;29285;52.128;21.060;2024-02-21T14:01:04;100274.30;;;6.77;100.00
43683;BME280;29285;52.128;21.060;2024-02-21T14:06:05;100265.52;;;6.76;100.00
43683;BME280;29285;52.128;21.060;2024-02-21T14:11:07;100253.95;;;6.74;100.00
43683;BME280;29285;52.128;21.060;2024-02-21T14:16:11;100244.65;;;6.74;100.00
43683;BME280;29285;52.128;21.060;2024-02-21T14:21:14;100244.80;;;6.78;100.00
43683;BME280;29285;52.128;21.060;2024-02-21T14:26:15;100240.85;;;6.77;100.00
43683;BME280;29285;52.128;21.060;2024-02-21T14:31:16;100235.33;;;6.79;100.00
43683;BME280;29285;52.128;21.060;2024-02-21T14:36:18;100231.36;;;6.80;100.00
43683;BME280;29285;52.128;21.060;2024-02-21T14:41:19;100228.60;;;6.81;100.00
43683;BME280;29285;52.128;21.060;2024-02-21T14:46:20;100228.42;;;6.79;100.00
43683;BME280;29285;52.128;21.060;2024-02-21T14:51:21;100218.94;;;6.78;100.00
43683;BME280;29285;52.128;21.060;2024-02-21T14:56:22;100203.59;;;6.77;100.00
43683;BME280;29285;52.128;21.060;2024-02-21T15:01:24;100204.81;;;6.73;100.00
43683;BME280;29285;52.128;21.060;2024-02-21T15:06:25;100199.99;;;6.70;100.00
43683;BME280;29285;52.128;21.060;2024-02-21T15:11:26;100204.83;;;6.68;100.00
43683;BME280;29285;52.128;21.060;2024-02-21T15:16:27;100205.35;;;6.67;100.00
43683;BME280;29285;52.128;21.060;2024-02-21T15:21:28;100203.63;;;6.64;100.00
43683;BME280;29285;52.128;21.060;2024-02-21T15:26:29;100203.11;;;6.63;100.00
43683;BME280;29285;52.128;21.060;2024-02-21T15:31:31;100198.45;;;6.63;100.00
43683;BME280;29285;52.128;21.060;2024-02-21T15:36:32;100196.73;;;6.60;100.00
43683;BME280;29285;52.128;21.060;2024-02-21T15:41:33;100192.61;;;6.59;100.00
43683;BME280;29285;52.128;21.060;2024-02-21T15:46:34;100187.42;;;6.62;100.00
43683;BME280;29285;52.128;21.060;2024-02-21T15:51:37;100182.41;;;6.65;100.00
43683;BME280;29285;52.128;21.060;2024-02-21T15:56:41;100178.44;;;6.68;100.00
43683;BME280;29285;52.128;21.060;2024-02-21T16:01:41;100175.69;;;6.68;100.00
43683;BME280;29285;52.128;21.060;2024-02-21T16:06:43;100180.01;;;6.65;100.00
43683;BME280;29285;52.128;21.060;2024-02-21T16:11:47;100181.40;;;6.59;100.00
43683;BME280;29285;52.128;21.060;2024-02-21T16:16:48;100177.96;;;6.55;100.00
43683;BME280;29285;52.128;21.060;2024-02-21T16:21:49;100178.48;;;6.55;100.00
43683;BME280;29285;52.128;21.060;2024-02-21T16:26:50;100182.45;;;6.53;100.00
43683;BME280;29285;52.128;21.060;2024-02-21T16:31:51;100176.75;;;6.52;100.00
43683;BME280;29285;52.128;21.060;2024-02-21T16:36:55;100172.45;;;6.48;100.00
43683;BME280;29285;52.128;21.060;2024-02-21T16:41:58;100169.88;;;6.47;100.00
43683;BME280;29285;52.128;21.060;2024-02-21T16:47:06;100171.59;;;6.43;100.00
43683;BME280;29285;52.128;21.060;2024-02-21T16:52:07;100173.33;;;6.42;100.00
43683;BME280;29285;52.128;21.060;2024-02-21T16:57:09;100169.89;;;6.42;100.00
43683;BME280;29285;52.128;21.060;2024-02-21T17:02:10;100167.29;;;6.42;100.00
43683;BME280;29285;52.128;21.060;2024-02-21T17:07:11;100164.71;;;6.43;100.00
43683;BME280;29285;52.128;21.060;2024-02-21T17:12:12;100172.29;;;6.46;100.00
43683;BME280;29285;52.128;21.060;2024-02-21T17:17:13;100167.11;;;6.43;100.00
43683;BME280;29285;52.128;21.060;2024-02-21T17:22:14;100164.70;;;6.43;100.00
43683;BME280;29285;52.128;21.060;2024-02-21T17:27:15;100161.10;;;6.41;100.00
43683;BME280;29285;52.128;21.060;2024-02-21T17:32:16;100159.89;;;6.40;100.00
43683;BME280;29285;52.128;21.060;2024-02-21T17:37:17;100160.92;;;6.40;100.00
43683;BME280;29285;52.128;21.060;2024-02-21T17:42:18;100165.56;;;6.42;100.00
43683;BME280;29285;52.128;21.060;2024-02-21T17:47:18;100157.13;;;6.42;100.00
43683;BME280;29285;52.128;21.060;2024-02-21T17:52:20;100150.08;;;6.39;100.00
43683;BME280;29285;52.128;21.060;2024-02-21T17:57:21;100147.66;;;6.36;100.00
43683;BME280;29285;52.128;21.060;2024-02-21T18:02:22;100140.77;;;6.34;100.00
43683;BME280;29285;52.128;21.060;2024-02-21T18:07:24;100142.84;;;6.33;100.00
43683;BME280;29285;52.128;21.060;2024-02-21T18:12:25;100143.19;;;6.32;100.00
43683;BME280;29285;52.128;21.060;2024-02-21T18:17:26;100141.30;;;6.31;100.00
43683;BME280;29285;52.128;21.060;2024-02-21T18:22:27;100135.95;;;6.30;100.00
43683;BME280;29285;52.128;21.060;2024-02-21T18:27:28;100133.20;;;6.30;100.00
43683;BME280;29285;52.128;21.060;2024-02-21T18:32:30;100125.62;;;6.29;100.00
43683;BME280;29285;52.128;21.060;2024-02-21T18:37:31;100118.56;;;6.25;100.00
43683;BME280;29285;52.128;21.060;2024-02-21T18:42:32;100113.39;;;6.21;100.00
43683;BME280;29285;52.128;21.060;2024-02-21T18:47:34;100110.66;;;6.19;100.00
43683;BME280;29285;52.128;21.060;2024-02-21T18:52:35;100112.02;;;6.17;100.00
43683;BME280;29285;52.128;21.060;2024-02-21T18:57:36;100107.55;;;6.16;100.00
43683;BME280;29285;52.128;21.060;2024-02-21T19:02:37;100102.21;;;6.16;100.00
43683;BME280;29285;52.128;21.060;2024-02-21T19:07:38;100100.48;;;6.17;100.00
43683;BME280;29285;52.128;21.060;2024-02-21T19:12:40;100098.60;;;6.19;100.00
43683;BME280;29285;52.128;21.060;2024-02-21T19:17:41;100095.14;;;6.20;100.00
43683;BME280;29285;52.128;21.060;2024-02-21T19:22:42;100088.59;;;6.21;100.00
43683;BME280;29285;52.128;21.060;2024-02-21T19:27:47;100081.17;;;6.22;100.00
43683;BME280;29285;52.128;21.060;2024-02-21T19:32:48;100081.20;;;6.25;100.00
43683;BME280;29285;52.128;21.060;2024-02-21T19:37:50;100079.79;;;6.29;100.00
43683;BME280;29285;52.128;21.060;2024-02-21T19:42:51;100078.23;;;6.29;100.00
43683;BME280;29285;52.128;21.060;2024-02-21T19:47:54;100068.41;;;6.27;100.00
43683;BME280;29285;52.128;21.060;2024-02-21T19:52:55;100069.48;;;6.25;100.00
43683;BME280;29285;52.128;21.060;2024-02-21T19:57:57;100066.55;;;6.24;100.00
43683;BME280;29285;52.128;21.060;2024-02-21T20:02:58;100065.16;;;6.23;100.00
43683;BME280;29285;52.128;21.060;2024-02-21T20:08:00;100062.06;;;6.22;100.00
43683;BME280;29285;52.128;21.060;2024-02-21T20:13:00;100060.49;;;6.24;100.00
43683;BME280;29285;52.128;21.060;2024-02-21T20:18:02;100056.36;;;6.24;100.00
43683;BME280;29285;52.128;21.060;2024-02-21T20:23:04;100043.98;;;6.24;100.00
43683;BME280;29285;52.128;21.060;2024-02-21T20:28:05;100039.46;;;6.28;100.00
43683;BME280;29285;52.128;21.060;2024-02-21T20:33:06;100039.65;;;6.30;100.00
43683;BME280;29285;52.128;21.060;2024-02-21T20:38:07;100035.50;;;6.33;100.00
43683;BME280;29285;52.128;21.060;2024-02-21T20:43:08;100037.05;;;6.32;100.00
43683;BME280;29285;52.128;21.060;2024-02-21T20:48:09;100037.73;;;6.32;100.00
43683;BME280;29285;52.128;21.060;2024-02-21T20:53:10;100039.30;;;6.31;100.00
43683;BME280;29285;52.128;21.060;2024-02-21T20:58:11;100041.70;;;6.32;100.00
43683;BME280;29285;52.128;21.060;2024-02-21T21:03:12;100040.65;;;6.38;100.00
43683;BME280;29285;52.128;21.060;2024-02-21T21:08:14;100041.34;;;6.39;100.00
43683;BME280;29285;52.128;21.060;2024-02-21T21:13:15;100034.77;;;6.41;100.00
43683;BME280;29285;52.128;21.060;2024-02-21T21:18:16;100033.40;;;6.40;100.00
43683;BME280;29285;52.128;21.060;2024-02-21T21:23:17;100028.92;;;6.39;100.00
43683;BME280;29285;52.128;21.060;2024-02-21T21:28:18;100018.59;;;6.39;100.00
43683;BME280;29285;52.128;21.060;2024-02-21T21:33:19;100009.98;;;6.36;100.00
43683;BME280;29285;52.128;21.060;2024-02-21T21:38:21;100008.64;;;6.29;100.00
43683;BME280;29285;52.128;21.060;2024-02-21T21:43:22;100003.83;;;6.22;100.00
43683;BME280;29285;52.128;21.060;2024-02-21T21:48:24;99998.34;;;6.17;100.00
43683;BME280;29285;52.128;21.060;2024-02-21T21:53:25;99993.69;;;6.14;100.00
43683;BME280;29285;52.128;21.060;2024-02-21T21:58:26;99982.65;;;6.17;100.00
43683;BME280;29285;52.128;21.060;2024-02-21T22:03:27;99973.34;;;6.20;100.00
43683;BME280;29285;52.128;21.060;2024-02-21T22:08:29;99958.88;;;6.19;100.00
43683;BME280;29285;52.128;21.060;2024-02-21T22:13:29;99956.77;;;6.27;100.00
43683;BME280;29285;52.128;21.060;2024-02-21T22:18:30;99952.67;;;6.19;100.00
43683;BME280;29285;52.128;21.060;2024-02-21T22:23:33;99953.55;;;6.15;100.00
43683;BME280;29285;52.128;21.060;2024-02-21T22:28:34;99952.52;;;6.13;100.00
43683;BME280;29285;52.128;21.060;2024-02-21T22:33:35;99947.71;;;6.14;100.00
43683;BME280;29285;52.128;21.060;2024-02-21T22:38:37;99945.46;;;6.15;100.00
43683;BME280;29285;52.128;21.060;2024-02-21T22:43:38;99938.58;;;6.14;100.00
43683;BME280;29285;52.128;21.060;2024-02-21T22:48:39;99932.71;;;6.15;100.00
43683;BME280;29285;52.128;21.060;2024-02-21T22:53:40;99923.41;;;6.15;100.00
43683;BME280;29285;52.128;21.060;2024-02-21T22:58:41;99918.06;;;6.14;100.00
43683;BME280;29285;52.128;21.060;2024-02-21T23:03:42;99906.70;;;6.12;100.00
43683;BME280;29285;52.128;21.060;2024-02-21T23:08:43;99900.50;;;6.14;100.00
43683;BME280;29285;52.128;21.060;2024-02-21T23:13:46;99893.61;;;6.15;100.00
43683;BME280;29285;52.128;21.060;2024-02-21T23:18:47;99886.20;;;6.13;100.00
43683;BME280;29285;52.128;21.060;2024-02-21T23:23:48;99878.98;;;6.11;100.00
43683;BME280;29285;52.128;21.060;2024-02-21T23:28:49;99876.91;;;6.12;100.00
43683;BME280;29285;52.128;21.060;2024-02-21T23:33:50;99879.16;;;6.11;100.00
43683;BME280;29285;52.128;21.060;2024-02-21T23:38:51;99868.15;;;6.10;100.00
43683;BME280;29285;52.128;21.060;2024-02-21T23:43:52;99868.80;;;6.13;100.00
43683;BME280;29285;52.128;21.060;2024-02-21T23:48:58;99866.23;;;6.14;100.00
43683;BME280;29285;52.128;21.060;2024-02-21T23:53:59;99856.06;;;6.15;100.00
43683;BME280;29285;52.128;21.060;2024-02-21T23:59:00;99855.20;;;6.16;100.00
